Aurora, WV (26705)

2:19 PM EST on February 12, 2016 (GMT -0500)
1 1/2 Mi. South of Terra Alta, Snowy Creek WV | | Change Station
CLOSE
Current Station
Personal Weather Station
Location: Terra Alta, WV
Elevation: 2842 ft
Nearby Weather Stations

Elev 2842 ft 39.40 °N, 79.58 °W | Updated 6 seconds ago

Snow
Snow
20.3 °F
Feels Like 16 °F
N
3.2
Wind Variable Wind from West

Today
High -- | Low -- °F
--% Chance of Precip.
Yesterday
High -- | Low -- °F
Precip. -- in
Pressure 29.87 in
Visibility 0.8 miles
Clouds Overcast 1000 ft
Windchill 16 °F
Dew Point 10 °F
Humidity 65%
Rainfall 0.00 in
Snow Depth Not available.
7:14 AM 5:51 PM
Waxing Crescent, 23% visible
METAR K2G4 121900Z AUTO 26007KT 3/4SM BR OVC010 M10/M12 A2987 RMK AO1
Pressure 29.87 in
Visibility 0.8 miles
Clouds Overcast 1000 ft
Windchill 16 °F
Dew Point 10 °F
Humidity 65%
Rainfall 0.00 in
Snow Depth Not available.
7:14 AM 5:51 PM
Waxing Crescent, 23% visible
METAR K2G4 121900Z AUTO 26007KT 3/4SM BR OVC010 M10/M12 A2987 RMK AO1

10-Day Weather Forecast

Almanac

Astronomy

Feb. 12, 2016 Rise Set
Actual Time
Civil Twilight
Nautical Twilight
Astronomical Twilight
Moon
Length of Visible Light
Length of Day
Tomorrow will be .
, % of the Moon is Illuminated

Today's Extremes

State Highs State Lows

Community

WunderPhotos

Upload Photos

1,892,376 photos uploaded!

WunderBlog® & News

Nearby

Air Quality

  Air Quality AQ Index Pollutant
Not available.

Snow Depth

Station Depth Elevation

Earthquake Activity

City Distance Mag. Time & Date
Minimum magnitude displayed is 2.5.

Coastal Water Temperatures

Place Temperature

Stations

Nearby Weather Stations

Station Location Temp. Windchill Dew Point Humidity Wind Precip. Elev Updated Type
                   

Watches & Warnings

There are currently no watches in effect.